PLF105 UTDD-EPWA
Flight info
| Callsign | PLF105 |
|---|---|
| Flight time | N/A |
| Altitude | 38000 |
| Route | SOPNO1A SOPNO DCT OKDOR DCT INDUD DCT MANAT/N0478F380 DCT AKRAM DCT DOMOL DCT BABUM/N0481F400 DCT KRS DCT DUKAN DCT SULEL DCT GILAB DCT TELLI DCT VETEN DCT SEVAN DCT AKUTU DCT LEGDO DCT TBN DCT ARSUG DCT CRM DCT SIN DCT OTKOT DCT ABSAX DCT UDROS DCT DINRO DCT KARIL DCT KENIN/N0476F340 DCT ORTEB DCT KONZI DCT LOGDA |
| Aircraft | GLF5/M-SBDE2E3FGHIJ3J4J5P2RWXY/LB1D1 |
Departure
| Time | 2026-05-07 06:56 |
|---|---|
| Airport | Dushanbe International Airport (UTDD) |
Arrival
| Time | N/A |
|---|---|
| Airport | Warsaw Chopin Airport (EPWA) |
| Time | Latitude | Longitude | Altitude | Speed | Heading |
|---|---|---|---|---|---|
| 2026-05-07 06:50 | 38.54743 | 68.81863 | 2612 ft | 0 kts | 90° |
| 2026-05-07 06:51 | 38.54742 | 68.81891 | 2612 ft | 6 kts | 100° |
| 2026-05-07 06:52 | 38.54714 | 68.81913 | 2611 ft | 6 kts | 187° |
| 2026-05-07 06:52 | 38.54692 | 68.81817 | 2611 ft | 18 kts | 270° |
| 2026-05-07 06:52 | 38.54695 | 68.81632 | 2611 ft | 20 kts | 270° |
| 2026-05-07 06:52 | 38.54694 | 68.81461 | 2611 ft | 17 kts | 265° |
| 2026-05-07 06:53 | 38.54683 | 68.81319 | 2611 ft | 14 kts | 270° |
| 2026-05-07 06:53 | 38.54683 | 68.81200 | 2611 ft | 12 kts | 271° |
| 2026-05-07 06:53 | 38.54684 | 68.81099 | 2611 ft | 10 kts | 270° |
| 2026-05-07 06:53 | 38.54684 | 68.81007 | 2611 ft | 11 kts | 270° |
| 2026-05-07 06:54 | 38.54685 | 68.80866 | 2610 ft | 19 kts | 271° |
| 2026-05-07 06:54 | 38.54684 | 68.80712 | 2610 ft | 8 kts | 264° |
| 2026-05-07 06:54 | 38.54652 | 68.80669 | 2610 ft | 6 kts | 186° |
| 2026-05-07 06:54 | 38.54597 | 68.80669 | 2610 ft | 11 kts | 179° |
| 2026-05-07 06:55 | 38.54524 | 68.80669 | 2609 ft | 9 kts | 179° |
| 2026-05-07 06:55 | 38.54461 | 68.80670 | 2609 ft | 11 kts | 180° |
| 2026-05-07 06:55 | 38.54375 | 68.80699 | 2608 ft | 14 kts | 103° |
| 2026-05-07 06:55 | 38.54373 | 68.80894 | 2608 ft | 36 kts | 90° |
| 2026-05-07 06:56 | 38.54373 | 68.81563 | 2609 ft | 114 kts | 89° |
| 2026-05-07 06:56 | 38.54367 | 68.82838 | 2694 ft | 167 kts | 89° |
| 2026-05-07 06:56 | 38.54359 | 68.84359 | 3380 ft | 180 kts | 89° |
| 2026-05-07 06:56 | 38.54362 | 68.85963 | 4271 ft | 187 kts | 88° |
| 2026-05-07 06:57 | 38.54387 | 68.87638 | 4912 ft | 197 kts | 87° |
| 2026-05-07 06:57 | 38.54407 | 68.89510 | 5123 ft | 237 kts | 90° |
| 2026-05-07 06:57 | 38.54378 | 68.91816 | 5332 ft | 277 kts | 90° |
| 2026-05-07 06:57 | 38.54357 | 68.94259 | 6391 ft | 278 kts | 90° |
| 2026-05-07 06:58 | 38.54343 | 68.96705 | 7383 ft | 281 kts | 89° |
| 2026-05-07 06:58 | 38.54330 | 68.99202 | 8372 ft | 285 kts | 89° |
| 2026-05-07 06:58 | 38.54320 | 69.01714 | 9381 ft | 288 kts | 89° |
| 2026-05-07 06:58 | 38.54310 | 69.04270 | 10381 ft | 293 kts | 89° |
| 2026-05-07 06:59 | 38.54231 | 69.06964 | 10806 ft | 322 kts | 99° |
| 2026-05-07 06:59 | 38.53187 | 69.09488 | 11764 ft | 330 kts | 133° |
| 2026-05-07 06:59 | 38.51278 | 69.11049 | 12823 ft | 335 kts | 160° |
| 2026-05-07 06:59 | 38.48981 | 69.11369 | 13639 ft | 345 kts | 184° |
| 2026-05-07 07:00 | 38.46591 | 69.11157 | 14678 ft | 348 kts | 182° |
| 2026-05-07 07:00 | 38.44150 | 69.11056 | 15719 ft | 353 kts | 181° |
| 2026-05-07 07:00 | 38.41685 | 69.11009 | 16723 ft | 359 kts | 180° |
| 2026-05-07 07:00 | 38.39202 | 69.10746 | 17729 ft | 362 kts | 196° |
| 2026-05-07 07:01 | 38.36949 | 69.09337 | 18131 ft | 364 kts | 219° |
| 2026-05-07 07:01 | 38.35365 | 69.06876 | 18166 ft | 361 kts | 245° |
| 2026-05-07 07:01 | 38.34783 | 69.03855 | 18117 ft | 356 kts | 271° |
| 2026-05-07 07:01 | 38.34936 | 69.00736 | 18100 ft | 353 kts | 275° |
| 2026-05-07 07:02 | 38.35034 | 68.97612 | 18119 ft | 353 kts | 273° |
| 2026-05-07 07:02 | 38.35075 | 68.94482 | 18101 ft | 353 kts | 272° |
| 2026-05-07 07:02 | 38.35091 | 68.91376 | 18092 ft | 353 kts | 272° |
| 2026-05-07 07:02 | 38.35099 | 68.88224 | 18100 ft | 352 kts | 273° |
| 2026-05-07 07:03 | 38.35670 | 68.85265 | 18098 ft | 348 kts | 299° |
| 2026-05-07 07:03 | 38.37162 | 68.82861 | 18117 ft | 348 kts | 316° |
| 2026-05-07 07:03 | 38.38916 | 68.80708 | 18096 ft | 349 kts | 317° |
| 2026-05-07 07:03 | 38.40669 | 68.78586 | 18099 ft | 348 kts | 317° |
| 2026-05-07 07:04 | 38.42423 | 68.76475 | 18117 ft | 349 kts | 317° |
| 2026-05-07 07:04 | 38.44181 | 68.74363 | 18106 ft | 348 kts | 317° |
| 2026-05-07 07:04 | 38.45938 | 68.72255 | 18082 ft | 348 kts | 317° |
| 2026-05-07 07:04 | 38.47719 | 68.70116 | 18087 ft | 347 kts | 317° |
| 2026-05-07 07:05 | 38.49469 | 68.68015 | 18093 ft | 348 kts | 317° |
| 2026-05-07 07:05 | 38.51232 | 68.65898 | 18093 ft | 349 kts | 317° |
| 2026-05-07 07:05 | 38.52962 | 68.63746 | 18110 ft | 348 kts | 311° |
| 2026-05-07 07:05 | 38.54044 | 68.60995 | 18139 ft | 351 kts | 285° |
| 2026-05-07 07:06 | 38.54239 | 68.57873 | 18136 ft | 353 kts | 272° |
| 2026-05-07 07:06 | 38.54261 | 68.54756 | 18107 ft | 353 kts | 272° |
| 2026-05-07 07:06 | 38.54276 | 68.51615 | 18152 ft | 353 kts | 272° |
| 2026-05-07 07:06 | 38.54287 | 68.48508 | 18176 ft | 351 kts | 272° |
| 2026-05-07 07:07 | 38.54297 | 68.45367 | 18197 ft | 354 kts | 272° |
| 2026-05-07 07:07 | 38.54304 | 68.42265 | 18215 ft | 353 kts | 272° |
| 2026-05-07 07:07 | 38.54312 | 68.39120 | 18224 ft | 353 kts | 272° |
| 2026-05-07 07:07 | 38.54317 | 68.36024 | 18259 ft | 353 kts | 272° |
| 2026-05-07 07:08 | 38.54322 | 68.32880 | 18260 ft | 353 kts | 271° |
| 2026-05-07 07:08 | 38.54327 | 68.29761 | 18269 ft | 352 kts | 271° |
| 2026-05-07 07:08 | 38.54331 | 68.26633 | 18241 ft | 354 kts | 271° |
| 2026-05-07 07:08 | 38.54333 | 68.23483 | 18234 ft | 353 kts | 271° |
| 2026-05-07 07:09 | 38.54335 | 68.20351 | 18262 ft | 353 kts | 271° |
| 2026-05-07 07:09 | 38.54336 | 68.17243 | 18249 ft | 353 kts | 271° |
| 2026-05-07 07:09 | 38.54336 | 68.14081 | 18266 ft | 352 kts | 271° |
| 2026-05-07 07:09 | 38.54336 | 68.10950 | 18235 ft | 353 kts | 271° |
| 2026-05-07 07:10 | 38.54333 | 68.07848 | 18258 ft | 352 kts | 271° |
| 2026-05-07 07:10 | 38.54443 | 68.04646 | 18686 ft | 367 kts | 275° |
| 2026-05-07 07:10 | 38.54597 | 68.01533 | 20313 ft | 355 kts | 275° |
| 2026-05-07 07:10 | 38.54752 | 67.98369 | 21291 ft | 364 kts | 275° |
| 2026-05-07 07:11 | 38.54906 | 67.95157 | 22353 ft | 368 kts | 274° |
| 2026-05-07 07:11 | 38.55061 | 67.91917 | 23447 ft | 372 kts | 274° |
| 2026-05-07 07:11 | 38.55217 | 67.88618 | 24463 ft | 378 kts | 274° |
| 2026-05-07 07:11 | 38.55374 | 67.85265 | 25408 ft | 384 kts | 274° |
| 2026-05-07 07:12 | 38.55534 | 67.81836 | 26341 ft | 388 kts | 274° |
| 2026-05-07 07:12 | 38.55693 | 67.78424 | 27243 ft | 392 kts | 274° |
| 2026-05-07 07:12 | 38.55854 | 67.74928 | 28022 ft | 399 kts | 274° |
| 2026-05-07 07:12 | 38.56017 | 67.71378 | 28883 ft | 402 kts | 274° |
| 2026-05-07 07:13 | 38.56181 | 67.67790 | 29677 ft | 407 kts | 274° |
| 2026-05-07 07:13 | 38.56344 | 67.64189 | 30514 ft | 410 kts | 274° |
| 2026-05-07 07:13 | 38.56509 | 67.60517 | 31209 ft | 415 kts | 274° |
| 2026-05-07 07:13 | 38.56672 | 67.56868 | 32000 ft | 417 kts | 274° |
| 2026-05-07 07:14 | 38.56837 | 67.53144 | 32657 ft | 421 kts | 274° |
| 2026-05-07 07:14 | 38.56999 | 67.49444 | 33286 ft | 424 kts | 274° |
| 2026-05-07 07:14 | 38.57165 | 67.45651 | 33848 ft | 428 kts | 274° |
| 2026-05-07 07:14 | 38.57330 | 67.41848 | 34497 ft | 429 kts | 274° |
| 2026-05-07 07:15 | 38.57492 | 67.38077 | 34970 ft | 433 kts | 274° |
| 2026-05-07 07:15 | 38.57657 | 67.34214 | 35435 ft | 437 kts | 274° |
| 2026-05-07 07:15 | 38.57822 | 67.30319 | 35989 ft | 437 kts | 274° |
| 2026-05-07 07:15 | 38.57983 | 67.26489 | 36721 ft | 434 kts | 274° |
| 2026-05-07 07:16 | 38.58142 | 67.22657 | 37371 ft | 431 kts | 274° |
| 2026-05-07 07:16 | 38.58302 | 67.18810 | 37921 ft | 431 kts | 274° |
| 2026-05-07 07:16 | 38.58457 | 67.15037 | 38242 ft | 433 kts | 274° |
| 2026-05-07 07:16 | 38.58617 | 67.11120 | 38265 ft | 441 kts | 274° |
| 2026-05-07 07:17 | 38.58934 | 67.03233 | 38265 ft | 449 kts | 274° |
| 2026-05-07 07:17 | 38.59248 | 66.95312 | 38260 ft | 445 kts | 274° |
| 2026-05-07 07:18 | 38.59552 | 66.87482 | 38233 ft | 443 kts | 274° |
| 2026-05-07 07:18 | 38.59853 | 66.79600 | 38197 ft | 442 kts | 274° |
| 2026-05-07 07:19 | 38.60148 | 66.71780 | 38160 ft | 443 kts | 274° |
| 2026-05-07 07:19 | 38.60436 | 66.63937 | 38113 ft | 442 kts | 274° |
| 2026-05-07 07:20 | 38.60720 | 66.56106 | 38057 ft | 442 kts | 274° |
| 2026-05-07 07:20 | 38.60999 | 66.48286 | 38015 ft | 442 kts | 274° |
| 2026-05-07 07:21 | 38.61136 | 66.44371 | 37911 ft | 442 kts | 274° |
| 2026-05-07 07:21 | 38.61270 | 66.40474 | 37994 ft | 441 kts | 274° |
| 2026-05-07 07:21 | 38.61539 | 66.32621 | 37953 ft | 442 kts | 273° |
| 2026-05-07 07:22 | 38.61816 | 66.24811 | 37942 ft | 441 kts | 276° |
| 2026-05-07 07:22 | 38.63341 | 66.17279 | 37944 ft | 441 kts | 286° |
| 2026-05-07 07:23 | 38.65073 | 66.09734 | 37929 ft | 442 kts | 286° |
| 2026-05-07 07:23 | 38.66787 | 66.02234 | 37904 ft | 441 kts | 285° |
| 2026-05-07 07:24 | 38.68497 | 65.94727 | 37899 ft | 440 kts | 286° |
| 2026-05-07 07:24 | 38.70213 | 65.87163 | 37896 ft | 441 kts | 286° |
| 2026-05-07 07:25 | 38.72774 | 65.75835 | 37888 ft | 439 kts | 285° |
| 2026-05-07 07:26 | 38.74464 | 65.68326 | 37888 ft | 440 kts | 285° |
| 2026-05-07 07:26 | 38.76146 | 65.60832 | 37879 ft | 441 kts | 285° |
| 2026-05-07 07:27 | 38.77834 | 65.53284 | 37873 ft | 441 kts | 285° |
| 2026-05-07 07:27 | 38.79509 | 65.45763 | 37872 ft | 440 kts | 285° |
| 2026-05-07 07:28 | 38.81186 | 65.38213 | 37868 ft | 439 kts | 285° |
| 2026-05-07 07:28 | 38.82856 | 65.30670 | 37939 ft | 440 kts | 285° |
| 2026-05-07 07:29 | 38.84517 | 65.23138 | 37872 ft | 439 kts | 285° |
| 2026-05-07 07:29 | 38.86170 | 65.15626 | 37870 ft | 439 kts | 284° |
| 2026-05-07 07:30 | 38.87816 | 65.08112 | 37873 ft | 439 kts | 284° |
| 2026-05-07 07:30 | 38.89460 | 65.00583 | 37871 ft | 438 kts | 284° |
| 2026-05-07 07:31 | 38.91094 | 64.93076 | 37870 ft | 438 kts | 284° |
| 2026-05-07 07:31 | 38.92721 | 64.85573 | 37867 ft | 439 kts | 284° |
| 2026-05-07 07:32 | 38.94354 | 64.78017 | 37869 ft | 439 kts | 284° |
| 2026-05-07 07:32 | 38.95988 | 64.70433 | 37869 ft | 440 kts | 284° |
| 2026-05-07 07:33 | 38.97607 | 64.62896 | 37867 ft | 440 kts | 284° |
| 2026-05-07 07:33 | 38.99216 | 64.55376 | 37858 ft | 438 kts | 284° |
| 2026-05-07 07:34 | 39.00834 | 64.47784 | 37849 ft | 439 kts | 284° |
| 2026-05-07 07:34 | 39.02432 | 64.40263 | 37843 ft | 439 kts | 284° |
| 2026-05-07 07:35 | 39.04037 | 64.32677 | 37844 ft | 439 kts | 284° |
| 2026-05-07 07:35 | 39.05626 | 64.25150 | 37841 ft | 439 kts | 284° |
| 2026-05-07 07:36 | 39.07223 | 64.17554 | 37837 ft | 438 kts | 283° |
| 2026-05-07 07:36 | 39.08880 | 64.10090 | 37839 ft | 438 kts | 285° |
| 2026-05-07 07:37 | 39.10607 | 64.02579 | 37837 ft | 438 kts | 285° |
| 2026-05-07 07:37 | 39.12334 | 63.95046 | 37835 ft | 438 kts | 285° |
| 2026-05-07 07:38 | 39.14046 | 63.87547 | 37838 ft | 439 kts | 285° |
| 2026-05-07 07:38 | 39.15764 | 63.80005 | 37829 ft | 439 kts | 284° |
| 2026-05-07 07:39 | 39.17467 | 63.72493 | 37829 ft | 438 kts | 285° |
| 2026-05-07 07:39 | 39.19163 | 63.64993 | 37823 ft | 437 kts | 284° |
| 2026-05-07 07:40 | 39.20866 | 63.57435 | 37813 ft | 438 kts | 284° |
| 2026-05-07 07:40 | 39.22554 | 63.49917 | 37813 ft | 437 kts | 285° |
| 2026-05-07 07:41 | 39.24234 | 63.42415 | 37810 ft | 436 kts | 284° |
| 2026-05-07 07:41 | 39.25067 | 63.38686 | 37695 ft | 436 kts | 284° |
| 2026-05-07 07:41 | 39.25907 | 63.34920 | 37820 ft | 435 kts | 284° |
| 2026-05-07 07:42 | 39.27566 | 63.27455 | 37817 ft | 436 kts | 284° |
| 2026-05-07 07:42 | 39.29230 | 63.19948 | 37815 ft | 436 kts | 284° |
| 2026-05-07 07:43 | 39.30900 | 63.12392 | 37810 ft | 436 kts | 284° |
| 2026-05-07 07:43 | 39.32547 | 63.04903 | 37815 ft | 436 kts | 284° |
| 2026-05-07 07:44 | 39.34195 | 62.97393 | 37817 ft | 437 kts | 284° |
| 2026-05-07 07:44 | 39.35852 | 62.89814 | 37807 ft | 437 kts | 284° |
| 2026-05-07 07:45 | 39.37489 | 62.82301 | 37808 ft | 436 kts | 283° |
| 2026-05-07 07:45 | 39.39117 | 62.74804 | 37815 ft | 435 kts | 283° |
| 2026-05-07 07:46 | 39.40750 | 62.67254 | 37813 ft | 435 kts | 284° |
| 2026-05-07 07:46 | 39.42376 | 62.59717 | 37819 ft | 435 kts | 283° |
| 2026-05-07 07:47 | 39.44000 | 62.52158 | 37829 ft | 437 kts | 283° |
| 2026-05-07 07:47 | 39.45618 | 62.44607 | 37829 ft | 436 kts | 283° |
| 2026-05-07 07:48 | 39.47220 | 62.37094 | 37830 ft | 435 kts | 283° |
| 2026-05-07 07:48 | 39.48824 | 62.29556 | 37843 ft | 434 kts | 283° |
| 2026-05-07 07:49 | 39.50421 | 62.22017 | 37837 ft | 433 kts | 283° |
| 2026-05-07 07:49 | 39.52006 | 62.14511 | 37837 ft | 435 kts | 283° |
| 2026-05-07 07:50 | 39.53592 | 62.06973 | 37835 ft | 436 kts | 283° |
| 2026-05-07 07:50 | 39.55184 | 61.99381 | 37838 ft | 435 kts | 283° |
| 2026-05-07 07:51 | 39.56755 | 61.91863 | 37843 ft | 435 kts | 283° |
| 2026-05-07 07:51 | 39.58327 | 61.84311 | 37853 ft | 435 kts | 283° |
| 2026-05-07 07:52 | 39.59904 | 61.76712 | 37847 ft | 436 kts | 282° |
| 2026-05-07 07:52 | 39.61462 | 61.69171 | 37851 ft | 435 kts | 282° |
| 2026-05-07 07:53 | 39.63024 | 61.61592 | 37852 ft | 435 kts | 283° |
| 2026-05-07 07:53 | 39.64573 | 61.54041 | 37849 ft | 435 kts | 283° |
| 2026-05-07 07:54 | 39.66119 | 61.46486 | 37855 ft | 435 kts | 282° |
| 2026-05-07 07:54 | 39.67664 | 61.38903 | 37852 ft | 435 kts | 282° |
| 2026-05-07 07:55 | 39.69201 | 61.31325 | 37855 ft | 435 kts | 282° |
| 2026-05-07 07:55 | 39.70738 | 61.23729 | 37862 ft | 434 kts | 282° |
| 2026-05-07 07:56 | 39.72263 | 61.16166 | 37863 ft | 434 kts | 282° |
| 2026-05-07 07:56 | 39.73778 | 61.08622 | 37855 ft | 434 kts | 282° |
| 2026-05-07 07:57 | 39.75296 | 61.01033 | 37861 ft | 434 kts | 282° |
| 2026-05-07 07:57 | 39.76806 | 60.93452 | 37862 ft | 433 kts | 282° |
| 2026-05-07 07:58 | 39.78315 | 60.85857 | 37867 ft | 433 kts | 282° |
| 2026-05-07 07:58 | 39.79813 | 60.78284 | 37870 ft | 433 kts | 282° |
| 2026-05-07 07:59 | 39.81302 | 60.70732 | 37872 ft | 432 kts | 282° |
| 2026-05-07 07:59 | 39.82784 | 60.63182 | 37875 ft | 433 kts | 282° |
| 2026-05-07 08:00 | 39.84272 | 60.55577 | 37873 ft | 434 kts | 282° |
| 2026-05-07 08:00 | 39.85748 | 60.48008 | 37881 ft | 433 kts | 282° |
| 2026-05-07 08:01 | 39.87222 | 60.40419 | 37882 ft | 432 kts | 281° |
| 2026-05-07 08:01 | 39.88692 | 60.32811 | 37888 ft | 432 kts | 281° |
| 2026-05-07 08:02 | 39.89523 | 60.25194 | 37919 ft | 426 kts | 269° |
| 2026-05-07 08:02 | 39.89617 | 60.17495 | 37895 ft | 428 kts | 269° |
| 2026-05-07 08:03 | 39.89693 | 60.09744 | 37896 ft | 426 kts | 269° |
| 2026-05-07 08:03 | 39.89761 | 60.02042 | 37900 ft | 426 kts | 269° |
| 2026-05-07 08:04 | 39.89822 | 59.94355 | 37902 ft | 427 kts | 269° |
| 2026-05-07 08:04 | 39.89880 | 59.86649 | 37901 ft | 426 kts | 269° |
| 2026-05-07 08:05 | 39.89932 | 59.78974 | 37903 ft | 425 kts | 269° |
| 2026-05-07 08:05 | 39.89978 | 59.71318 | 37904 ft | 426 kts | 269° |
| 2026-05-07 08:06 | 39.90020 | 59.63620 | 37902 ft | 424 kts | 269° |
| 2026-05-07 08:06 | 39.90057 | 59.55984 | 37904 ft | 425 kts | 269° |
| 2026-05-07 08:07 | 39.90089 | 59.48308 | 37901 ft | 425 kts | 268° |
| 2026-05-07 08:07 | 39.90115 | 59.40659 | 37907 ft | 425 kts | 269° |
| 2026-05-07 08:08 | 39.90136 | 59.33014 | 37917 ft | 423 kts | 268° |
| 2026-05-07 08:08 | 39.90153 | 59.25332 | 37925 ft | 423 kts | 268° |
| 2026-05-07 08:09 | 39.90165 | 59.17668 | 37926 ft | 423 kts | 268° |
| 2026-05-07 08:09 | 39.90171 | 59.10041 | 37928 ft | 423 kts | 268° |
| 2026-05-07 08:10 | 39.90173 | 59.02396 | 37925 ft | 422 kts | 268° |
| 2026-05-07 08:10 | 39.90170 | 58.94802 | 37923 ft | 423 kts | 268° |
| 2026-05-07 08:11 | 39.90161 | 58.87132 | 37927 ft | 422 kts | 268° |
| 2026-05-07 08:11 | 39.90149 | 58.79538 | 37927 ft | 421 kts | 268° |
| 2026-05-07 08:12 | 39.90130 | 58.71949 | 37930 ft | 422 kts | 268° |
| 2026-05-07 08:12 | 39.90108 | 58.64307 | 37931 ft | 421 kts | 268° |
| 2026-05-07 08:13 | 39.90080 | 58.56758 | 37930 ft | 420 kts | 268° |
| 2026-05-07 08:13 | 39.90047 | 58.49141 | 37929 ft | 420 kts | 268° |
| 2026-05-07 08:14 | 39.90008 | 58.41559 | 37932 ft | 420 kts | 268° |
| 2026-05-07 08:14 | 39.89966 | 58.34019 | 37928 ft | 420 kts | 267° |
| 2026-05-07 08:15 | 39.89919 | 58.26439 | 37940 ft | 420 kts | 267° |
| 2026-05-07 08:15 | 39.89866 | 58.18843 | 37938 ft | 419 kts | 267° |
| 2026-05-07 08:16 | 39.89808 | 58.11263 | 37937 ft | 419 kts | 267° |
| 2026-05-07 08:16 | 39.89746 | 58.03701 | 37944 ft | 420 kts | 266° |
| 2026-05-07 08:17 | 39.89680 | 57.96153 | 37945 ft | 420 kts | 267° |
| 2026-05-07 08:17 | 39.89607 | 57.88561 | 37935 ft | 419 kts | 267° |
| 2026-05-07 08:18 | 39.89531 | 57.81000 | 37944 ft | 417 kts | 266° |
| 2026-05-07 08:18 | 39.89449 | 57.73501 | 37945 ft | 417 kts | 267° |
| 2026-05-07 08:19 | 39.89362 | 57.65961 | 37945 ft | 417 kts | 266° |
| 2026-05-07 08:19 | 39.89272 | 57.58438 | 37954 ft | 416 kts | 266° |
| 2026-05-07 08:20 | 39.89175 | 57.50930 | 37948 ft | 416 kts | 266° |
| 2026-05-07 08:20 | 39.89075 | 57.43441 | 37948 ft | 415 kts | 266° |
| 2026-05-07 08:21 | 39.88970 | 57.35952 | 37950 ft | 416 kts | 266° |
| 2026-05-07 08:21 | 39.88859 | 57.28435 | 37959 ft | 415 kts | 266° |
| 2026-05-07 08:22 | 39.88744 | 57.20964 | 37952 ft | 414 kts | 266° |
| 2026-05-07 08:22 | 39.88625 | 57.13506 | 37959 ft | 415 kts | 266° |
| 2026-05-07 08:23 | 39.88501 | 57.06017 | 37963 ft | 414 kts | 266° |
| 2026-05-07 08:23 | 39.88371 | 56.98555 | 37958 ft | 413 kts | 266° |
| 2026-05-07 08:24 | 39.88237 | 56.91095 | 37967 ft | 413 kts | 266° |
| 2026-05-07 08:24 | 39.88100 | 56.83664 | 37965 ft | 414 kts | 266° |
| 2026-05-07 08:25 | 39.87957 | 56.76199 | 37965 ft | 415 kts | 265° |
| 2026-05-07 08:25 | 39.87809 | 56.68704 | 37963 ft | 414 kts | 265° |
| 2026-05-07 08:26 | 39.87576 | 56.57512 | 37971 ft | 414 kts | 266° |
| 2026-05-07 08:26 | 39.87416 | 56.50027 | 37967 ft | 414 kts | 266° |
| 2026-05-07 08:27 | 39.87251 | 56.42551 | 37971 ft | 414 kts | 266° |
| 2026-05-07 08:27 | 39.87081 | 56.35082 | 37968 ft | 414 kts | 265° |
| 2026-05-07 08:28 | 39.86906 | 56.27587 | 37989 ft | 415 kts | 265° |
| 2026-05-07 08:28 | 39.86727 | 56.20125 | 37989 ft | 414 kts | 265° |
| 2026-05-07 08:29 | 39.86544 | 56.12679 | 37992 ft | 414 kts | 265° |
| 2026-05-07 08:29 | 39.86354 | 56.05190 | 37992 ft | 414 kts | 265° |
| 2026-05-07 08:30 | 39.86161 | 55.97737 | 37986 ft | 414 kts | 265° |
| 2026-05-07 08:30 | 39.85962 | 55.90264 | 37981 ft | 415 kts | 265° |
| 2026-05-07 08:31 | 39.85757 | 55.82779 | 37984 ft | 415 kts | 265° |
| 2026-05-07 08:31 | 39.85549 | 55.75306 | 37978 ft | 416 kts | 265° |
| 2026-05-07 08:32 | 39.85336 | 55.67826 | 37982 ft | 416 kts | 265° |
| 2026-05-07 08:32 | 39.85117 | 55.60283 | 37979 ft | 416 kts | 265° |
| 2026-05-07 08:33 | 39.84893 | 55.52799 | 37982 ft | 416 kts | 265° |
| 2026-05-07 08:33 | 39.84665 | 55.45320 | 37984 ft | 417 kts | 265° |
| 2026-05-07 08:34 | 39.84432 | 55.37805 | 37981 ft | 416 kts | 265° |
| 2026-05-07 08:34 | 39.84193 | 55.30293 | 37997 ft | 417 kts | 264° |
| 2026-05-07 08:35 | 39.83949 | 55.22764 | 38002 ft | 418 kts | 264° |
| 2026-05-07 08:35 | 39.83700 | 55.15242 | 38006 ft | 417 kts | 264° |
| 2026-05-07 08:36 | 39.83447 | 55.07728 | 38005 ft | 417 kts | 264° |
| 2026-05-07 08:36 | 39.83189 | 55.00211 | 38004 ft | 418 kts | 264° |
| 2026-05-07 08:37 | 39.82926 | 54.92684 | 38008 ft | 418 kts | 264° |
| 2026-05-07 08:37 | 39.82658 | 54.85175 | 38012 ft | 417 kts | 264° |
| 2026-05-07 08:38 | 39.82386 | 54.77658 | 38017 ft | 417 kts | 264° |
| 2026-05-07 08:38 | 39.82609 | 54.73916 | 38028 ft | 422 kts | 275° |
| 2026-05-07 08:38 | 39.83125 | 54.70150 | 38022 ft | 424 kts | 275° |
| 2026-05-07 08:39 | 39.84118 | 54.62631 | 38018 ft | 423 kts | 275° |
| 2026-05-07 08:39 | 39.85101 | 54.55095 | 38021 ft | 422 kts | 275° |
| 2026-05-07 08:40 | 39.86070 | 54.47612 | 38024 ft | 422 kts | 275° |
| 2026-05-07 08:40 | 39.87039 | 54.40094 | 38019 ft | 422 kts | 275° |
| 2026-05-07 08:41 | 39.88003 | 54.32575 | 38025 ft | 422 kts | 274° |
| 2026-05-07 08:41 | 39.88964 | 54.25038 | 38022 ft | 422 kts | 275° |
| 2026-05-07 08:42 | 39.89917 | 54.17523 | 38022 ft | 422 kts | 274° |
| 2026-05-07 08:42 | 39.90866 | 54.09998 | 38022 ft | 422 kts | 275° |
| 2026-05-07 08:43 | 39.91804 | 54.02525 | 38020 ft | 421 kts | 275° |
| 2026-05-07 08:43 | 39.92748 | 53.94967 | 38019 ft | 422 kts | 274° |
| 2026-05-07 08:44 | 39.93679 | 53.87458 | 38015 ft | 422 kts | 274° |
| 2026-05-07 08:44 | 39.94604 | 53.79957 | 38013 ft | 421 kts | 274° |
| 2026-05-07 08:45 | 39.95524 | 53.72467 | 38014 ft | 421 kts | 274° |
| 2026-05-07 08:45 | 39.96444 | 53.64929 | 38017 ft | 422 kts | 275° |
| 2026-05-07 08:46 | 39.97359 | 53.57394 | 38012 ft | 422 kts | 274° |
| 2026-05-07 08:46 | 39.98267 | 53.49867 | 38014 ft | 420 kts | 274° |
| 2026-05-07 08:47 | 39.99171 | 53.42341 | 38017 ft | 420 kts | 274° |
| 2026-05-07 08:47 | 40.00067 | 53.34827 | 38020 ft | 420 kts | 274° |
| 2026-05-07 08:48 | 40.00957 | 53.27325 | 38044 ft | 420 kts | 274° |
| 2026-05-07 08:48 | 40.01844 | 53.19808 | 38046 ft | 420 kts | 274° |
| 2026-05-07 08:49 | 40.02721 | 53.12339 | 38051 ft | 421 kts | 274° |
| 2026-05-07 08:49 | 40.03601 | 53.04789 | 38055 ft | 421 kts | 274° |
| 2026-05-07 08:50 | 40.03925 | 52.97276 | 38059 ft | 414 kts | 264° |
| 2026-05-07 08:50 | 40.03729 | 52.89785 | 38055 ft | 416 kts | 264° |
| 2026-05-07 08:51 | 40.03528 | 52.82289 | 38053 ft | 415 kts | 264° |
| 2026-05-07 08:51 | 40.03321 | 52.74802 | 38051 ft | 415 kts | 264° |
| 2026-05-07 08:52 | 40.03109 | 52.67298 | 38047 ft | 416 kts | 264° |
| 2026-05-07 08:52 | 40.02891 | 52.59743 | 38055 ft | 416 kts | 264° |
| 2026-05-07 08:53 | 40.02669 | 52.52233 | 38047 ft | 415 kts | 264° |
| 2026-05-07 08:53 | 40.02442 | 52.44712 | 38047 ft | 415 kts | 264° |
| 2026-05-07 08:54 | 40.02212 | 52.37251 | 38059 ft | 415 kts | 264° |
| 2026-05-07 08:54 | 40.01974 | 52.29697 | 38075 ft | 415 kts | 264° |
| 2026-05-07 08:55 | 40.01733 | 52.22196 | 38077 ft | 416 kts | 264° |
| 2026-05-07 08:55 | 40.01488 | 52.14676 | 38074 ft | 415 kts | 264° |
| 2026-05-07 08:56 | 40.01236 | 52.07155 | 38076 ft | 415 kts | 264° |
| 2026-05-07 08:56 | 40.00981 | 51.99678 | 38085 ft | 416 kts | 264° |
| 2026-05-07 08:57 | 40.00721 | 51.92164 | 38082 ft | 417 kts | 264° |
| 2026-05-07 08:57 | 40.00454 | 51.84609 | 38083 ft | 418 kts | 263° |
| 2026-05-07 08:58 | 40.00181 | 51.77043 | 38084 ft | 418 kts | 264° |
| 2026-05-07 08:58 | 39.99904 | 51.69498 | 38080 ft | 417 kts | 264° |
| 2026-05-07 08:59 | 39.99623 | 51.61966 | 38080 ft | 417 kts | 264° |
| 2026-05-07 08:59 | 39.99338 | 51.54454 | 38074 ft | 418 kts | 264° |
| 2026-05-07 09:00 | 39.99474 | 51.46880 | 38090 ft | 423 kts | 274° |